sensor_id;sensor_type;location;lat;lon;timestamp;P1;durP1;ratioP1;P2;durP2;ratioP2
32329;SDS011;18807;52.434;13.238;2023-04-09T00:03:38;26.42;;;14.52;;
32329;SDS011;18807;52.434;13.238;2023-04-09T00:11:12;29.90;;;16.92;;
32329;SDS011;18807;52.434;13.238;2023-04-09T00:18:48;28.93;;;16.47;;
32329;SDS011;18807;52.434;13.238;2023-04-09T00:26:22;24.38;;;14.95;;
32329;SDS011;18807;52.434;13.238;2023-04-09T00:33:58;25.57;;;15.70;;
32329;SDS011;18807;52.434;13.238;2023-04-09T00:41:31;25.83;;;16.55;;
32329;SDS011;18807;52.434;13.238;2023-04-09T00:49:07;26.60;;;15.00;;
32329;SDS011;18807;52.434;13.238;2023-04-09T00:56:41;29.35;;;15.75;;
32329;SDS011;18807;52.434;13.238;2023-04-09T01:04:16;26.45;;;14.30;;
32329;SDS011;18807;52.434;13.238;2023-04-09T01:11:53;24.60;;;15.07;;
32329;SDS011;18807;52.434;13.238;2023-04-09T01:19:45;26.05;;;15.38;;
32329;SDS011;18807;52.434;13.238;2023-04-09T01:27:27;26.60;;;15.65;;
32329;SDS011;18807;52.434;13.238;2023-04-09T01:35:11;25.75;;;15.13;;
32329;SDS011;18807;52.434;13.238;2023-04-09T01:42:46;24.55;;;14.98;;
32329;SDS011;18807;52.434;13.238;2023-04-09T01:50:23;29.23;;;15.15;;
32329;SDS011;18807;52.434;13.238;2023-04-09T01:57:58;27.25;;;16.85;;
32329;SDS011;18807;52.434;13.238;2023-04-09T02:05:35;27.37;;;16.50;;
32329;SDS011;18807;52.434;13.238;2023-04-09T02:13:11;27.40;;;17.20;;
32329;SDS011;18807;52.434;13.238;2023-04-09T02:20:50;25.42;;;15.07;;
32329;SDS011;18807;52.434;13.238;2023-04-09T02:28:26;31.35;;;17.90;;
32329;SDS011;18807;52.434;13.238;2023-04-09T02:36:01;29.20;;;16.70;;
32329;SDS011;18807;52.434;13.238;2023-04-09T02:43:35;28.00;;;16.10;;
32329;SDS011;18807;52.434;13.238;2023-04-09T02:51:11;28.95;;;15.68;;
32329;SDS011;18807;52.434;13.238;2023-04-09T02:58:44;28.30;;;16.55;;
32329;SDS011;18807;52.434;13.238;2023-04-09T03:06:22;29.02;;;15.93;;
32329;SDS011;18807;52.434;13.238;2023-04-09T03:13:56;32.72;;;17.50;;
32329;SDS011;18807;52.434;13.238;2023-04-09T03:21:31;27.73;;;16.33;;
32329;SDS011;18807;52.434;13.238;2023-04-09T03:29:06;31.02;;;18.13;;
32329;SDS011;18807;52.434;13.238;2023-04-09T03:36:41;34.42;;;17.50;;
32329;SDS011;18807;52.434;13.238;2023-04-09T03:44:15;35.35;;;18.55;;
32329;SDS011;18807;52.434;13.238;2023-04-09T03:51:50;34.57;;;19.37;;
32329;SDS011;18807;52.434;13.238;2023-04-09T03:59:25;34.47;;;17.63;;
32329;SDS011;18807;52.434;13.238;2023-04-09T04:07:01;34.58;;;19.10;;
32329;SDS011;18807;52.434;13.238;2023-04-09T04:14:35;31.92;;;17.80;;
32329;SDS011;18807;52.434;13.238;2023-04-09T04:22:10;35.53;;;17.73;;
32329;SDS011;18807;52.434;13.238;2023-04-09T04:29:44;33.72;;;18.30;;
32329;SDS011;18807;52.434;13.238;2023-04-09T04:37:21;38.90;;;20.27;;
32329;SDS011;18807;52.434;13.238;2023-04-09T04:44:55;33.80;;;17.88;;
32329;SDS011;18807;52.434;13.238;2023-04-09T04:52:30;36.65;;;19.35;;
32329;SDS011;18807;52.434;13.238;2023-04-09T05:00:05;33.97;;;18.33;;
32329;SDS011;18807;52.434;13.238;2023-04-09T05:07:41;35.08;;;18.80;;
32329;SDS011;18807;52.434;13.238;2023-04-09T05:15:15;34.30;;;18.67;;
32329;SDS011;18807;52.434;13.238;2023-04-09T05:22:51;39.58;;;19.52;;
32329;SDS011;18807;52.434;13.238;2023-04-09T05:30:25;36.55;;;18.30;;
32329;SDS011;18807;52.434;13.238;2023-04-09T05:38:00;34.53;;;17.75;;
32329;SDS011;18807;52.434;13.238;2023-04-09T05:45:34;29.90;;;16.63;;
32329;SDS011;18807;52.434;13.238;2023-04-09T05:53:10;20.40;;;11.47;;
32329;SDS011;18807;52.434;13.238;2023-04-09T06:00:44;25.40;;;13.98;;
32329;SDS011;18807;52.434;13.238;2023-04-09T06:08:19;22.25;;;13.05;;
32329;SDS011;18807;52.434;13.238;2023-04-09T06:15:53;28.08;;;16.35;;
32329;SDS011;18807;52.434;13.238;2023-04-09T06:23:28;26.38;;;14.75;;
32329;SDS011;18807;52.434;13.238;2023-04-09T06:31:03;31.23;;;15.63;;
32329;SDS011;18807;52.434;13.238;2023-04-09T06:38:38;27.92;;;14.00;;
32329;SDS011;18807;52.434;13.238;2023-04-09T06:46:12;35.22;;;17.65;;
32329;SDS011;18807;52.434;13.238;2023-04-09T06:53:50;36.47;;;18.40;;
32329;SDS011;18807;52.434;13.238;2023-04-09T07:01:25;37.03;;;18.77;;
32329;SDS011;18807;52.434;13.238;2023-04-09T07:09:01;34.28;;;16.98;;
32329;SDS011;18807;52.434;13.238;2023-04-09T07:16:35;36.65;;;17.58;;
32329;SDS011;18807;52.434;13.238;2023-04-09T07:24:10;35.30;;;18.67;;
32329;SDS011;18807;52.434;13.238;2023-04-09T07:31:44;38.33;;;19.15;;
32329;SDS011;18807;52.434;13.238;2023-04-09T07:39:20;42.50;;;19.23;;
32329;SDS011;18807;52.434;13.238;2023-04-09T07:46:55;44.25;;;20.65;;
32329;SDS011;18807;52.434;13.238;2023-04-09T07:54:30;47.73;;;21.47;;
32329;SDS011;18807;52.434;13.238;2023-04-09T08:02:04;42.80;;;20.70;;
32329;SDS011;18807;52.434;13.238;2023-04-09T08:09:41;47.22;;;22.45;;
32329;SDS011;18807;52.434;13.238;2023-04-09T08:17:15;46.53;;;22.48;;
32329;SDS011;18807;52.434;13.238;2023-04-09T08:24:51;41.77;;;21.90;;
32329;SDS011;18807;52.434;13.238;2023-04-09T08:32:25;42.63;;;22.05;;
32329;SDS011;18807;52.434;13.238;2023-04-09T08:40:01;41.77;;;20.53;;
32329;SDS011;18807;52.434;13.238;2023-04-09T08:47:35;42.70;;;22.45;;
32329;SDS011;18807;52.434;13.238;2023-04-09T08:55:11;41.08;;;21.63;;
32329;SDS011;18807;52.434;13.238;2023-04-09T09:03:01;36.63;;;20.55;;
32329;SDS011;18807;52.434;13.238;2023-04-09T09:10:39;39.45;;;21.55;;
32329;SDS011;18807;52.434;13.238;2023-04-09T09:18:36;38.90;;;21.03;;
32329;SDS011;18807;52.434;13.238;2023-04-09T09:26:13;36.70;;;20.77;;
32329;SDS011;18807;52.434;13.238;2023-04-09T09:33:49;37.00;;;20.33;;
32329;SDS011;18807;52.434;13.238;2023-04-09T09:48:59;42.40;;;22.95;;
32329;SDS011;18807;52.434;13.238;2023-04-09T09:56:36;41.33;;;22.63;;
32329;SDS011;18807;52.434;13.238;2023-04-09T10:04:12;43.97;;;23.70;;
32329;SDS011;18807;52.434;13.238;2023-04-09T10:11:48;43.38;;;23.50;;
32329;SDS011;18807;52.434;13.238;2023-04-09T10:19:22;44.15;;;23.80;;
32329;SDS011;18807;52.434;13.238;2023-04-09T10:26:58;42.30;;;24.17;;
32329;SDS011;18807;52.434;13.238;2023-04-09T10:42:18;47.60;;;24.92;;
32329;SDS011;18807;52.434;13.238;2023-04-09T10:49:56;50.30;;;27.10;;
32329;SDS011;18807;52.434;13.238;2023-04-09T10:57:32;43.27;;;23.53;;
32329;SDS011;18807;52.434;13.238;2023-04-09T11:05:11;36.00;;;21.27;;
32329;SDS011;18807;52.434;13.238;2023-04-09T11:13:08;34.50;;;19.27;;
32329;SDS011;18807;52.434;13.238;2023-04-09T11:20:44;39.30;;;21.88;;
32329;SDS011;18807;52.434;13.238;2023-04-09T11:28:21;33.80;;;19.38;;
32329;SDS011;18807;52.434;13.238;2023-04-09T11:35:56;37.72;;;22.98;;
32329;SDS011;18807;52.434;13.238;2023-04-09T11:43:31;33.37;;;18.50;;
32329;SDS011;18807;52.434;13.238;2023-04-09T11:51:08;30.70;;;18.42;;
32329;SDS011;18807;52.434;13.238;2023-04-09T11:58:45;36.03;;;19.23;;
32329;SDS011;18807;52.434;13.238;2023-04-09T12:06:20;31.83;;;18.30;;
32329;SDS011;18807;52.434;13.238;2023-04-09T12:14:00;24.95;;;15.30;;
32329;SDS011;18807;52.434;13.238;2023-04-09T12:21:44;25.80;;;15.05;;
32329;SDS011;18807;52.434;13.238;2023-04-09T12:29:22;25.17;;;15.75;;
32329;SDS011;18807;52.434;13.238;2023-04-09T12:36:58;26.33;;;14.00;;
32329;SDS011;18807;52.434;13.238;2023-04-09T12:44:33;23.43;;;14.00;;
32329;SDS011;18807;52.434;13.238;2023-04-09T12:52:08;20.90;;;11.75;;
32329;SDS011;18807;52.434;13.238;2023-04-09T12:59:43;16.30;;;9.90;;
32329;SDS011;18807;52.434;13.238;2023-04-09T13:07:18;14.38;;;9.07;;
32329;SDS011;18807;52.434;13.238;2023-04-09T13:14:53;19.70;;;11.07;;
32329;SDS011;18807;52.434;13.238;2023-04-09T13:22:28;18.60;;;11.23;;
32329;SDS011;18807;52.434;13.238;2023-04-09T13:30:04;18.80;;;11.63;;
32329;SDS011;18807;52.434;13.238;2023-04-09T13:37:39;18.00;;;11.27;;
32329;SDS011;18807;52.434;13.238;2023-04-09T13:45:16;18.42;;;10.15;;
32329;SDS011;18807;52.434;13.238;2023-04-09T13:52:51;19.00;;;11.20;;
32329;SDS011;18807;52.434;13.238;2023-04-09T14:00:27;16.90;;;10.45;;
32329;SDS011;18807;52.434;13.238;2023-04-09T14:08:01;15.00;;;9.35;;
32329;SDS011;18807;52.434;13.238;2023-04-09T14:15:37;15.38;;;9.65;;
32329;SDS011;18807;52.434;13.238;2023-04-09T14:23:11;15.82;;;10.18;;
32329;SDS011;18807;52.434;13.238;2023-04-09T14:30:46;13.43;;;9.05;;
32329;SDS011;18807;52.434;13.238;2023-04-09T14:38:20;12.95;;;7.82;;
32329;SDS011;18807;52.434;13.238;2023-04-09T14:45:58;14.40;;;10.20;;
32329;SDS011;18807;52.434;13.238;2023-04-09T14:53:32;18.15;;;13.73;;
32329;SDS011;18807;52.434;13.238;2023-04-09T15:01:07;19.83;;;13.18;;
32329;SDS011;18807;52.434;13.238;2023-04-09T15:08:41;20.30;;;12.38;;
32329;SDS011;18807;52.434;13.238;2023-04-09T15:16:21;22.90;;;12.27;;
32329;SDS011;18807;52.434;13.238;2023-04-09T15:23:57;58.80;;;25.95;;
32329;SDS011;18807;52.434;13.238;2023-04-09T15:31:33;67.70;;;28.67;;
32329;SDS011;18807;52.434;13.238;2023-04-09T15:39:07;36.80;;;16.95;;
32329;SDS011;18807;52.434;13.238;2023-04-09T15:46:43;43.65;;;21.98;;
32329;SDS011;18807;52.434;13.238;2023-04-09T15:54:17;43.45;;;19.63;;
32329;SDS011;18807;52.434;13.238;2023-04-09T16:01:52;45.30;;;21.25;;
32329;SDS011;18807;52.434;13.238;2023-04-09T16:09:26;39.75;;;17.13;;
32329;SDS011;18807;52.434;13.238;2023-04-09T16:17:02;26.37;;;12.77;;
32329;SDS011;18807;52.434;13.238;2023-04-09T16:24:36;35.08;;;16.83;;
32329;SDS011;18807;52.434;13.238;2023-04-09T16:32:11;25.85;;;11.60;;
32329;SDS011;18807;52.434;13.238;2023-04-09T16:39:46;16.75;;;10.57;;
32329;SDS011;18807;52.434;13.238;2023-04-09T16:47:21;16.90;;;8.87;;
32329;SDS011;18807;52.434;13.238;2023-04-09T16:54:55;16.15;;;10.38;;
32329;SDS011;18807;52.434;13.238;2023-04-09T17:02:31;24.85;;;11.48;;
32329;SDS011;18807;52.434;13.238;2023-04-09T17:10:05;26.75;;;14.40;;
32329;SDS011;18807;52.434;13.238;2023-04-09T17:17:42;33.13;;;17.13;;
32329;SDS011;18807;52.434;13.238;2023-04-09T17:25:17;33.85;;;17.67;;
32329;SDS011;18807;52.434;13.238;2023-04-09T17:32:53;33.17;;;16.27;;
32329;SDS011;18807;52.434;13.238;2023-04-09T17:40:27;32.53;;;17.40;;
32329;SDS011;18807;52.434;13.238;2023-04-09T17:48:02;31.77;;;17.25;;
32329;SDS011;18807;52.434;13.238;2023-04-09T17:55:36;34.72;;;17.23;;
32329;SDS011;18807;52.434;13.238;2023-04-09T18:03:12;37.63;;;17.48;;
32329;SDS011;18807;52.434;13.238;2023-04-09T18:10:47;36.55;;;16.20;;
32329;SDS011;18807;52.434;13.238;2023-04-09T18:18:43;43.03;;;17.83;;
32329;SDS011;18807;52.434;13.238;2023-04-09T18:26:35;37.65;;;18.25;;
32329;SDS011;18807;52.434;13.238;2023-04-09T18:34:10;42.22;;;18.70;;
32329;SDS011;18807;52.434;13.238;2023-04-09T18:41:44;33.20;;;16.77;;
32329;SDS011;18807;52.434;13.238;2023-04-09T18:49:19;44.83;;;18.50;;
32329;SDS011;18807;52.434;13.238;2023-04-09T18:56:53;42.28;;;18.75;;
32329;SDS011;18807;52.434;13.238;2023-04-09T19:12:07;35.78;;;18.52;;
32329;SDS011;18807;52.434;13.238;2023-04-09T19:19:43;37.42;;;17.13;;
32329;SDS011;18807;52.434;13.238;2023-04-09T19:27:17;31.00;;;15.30;;
32329;SDS011;18807;52.434;13.238;2023-04-09T19:34:52;37.38;;;18.65;;
32329;SDS011;18807;52.434;13.238;2023-04-09T19:42:27;43.10;;;18.15;;
32329;SDS011;18807;52.434;13.238;2023-04-09T19:50:02;37.25;;;18.00;;
32329;SDS011;18807;52.434;13.238;2023-04-09T19:57:36;34.40;;;16.42;;
32329;SDS011;18807;52.434;13.238;2023-04-09T20:05:13;31.88;;;15.75;;
32329;SDS011;18807;52.434;13.238;2023-04-09T20:12:49;35.08;;;16.33;;
32329;SDS011;18807;52.434;13.238;2023-04-09T20:20:25;34.97;;;15.93;;
32329;SDS011;18807;52.434;13.238;2023-04-09T20:27:59;34.55;;;16.27;;
32329;SDS011;18807;52.434;13.238;2023-04-09T20:35:36;31.15;;;15.43;;
32329;SDS011;18807;52.434;13.238;2023-04-09T20:43:10;33.50;;;17.45;;
32329;SDS011;18807;52.434;13.238;2023-04-09T20:50:45;34.00;;;17.90;;
32329;SDS011;18807;52.434;13.238;2023-04-09T20:58:19;35.47;;;18.35;;
32329;SDS011;18807;52.434;13.238;2023-04-09T21:05:55;37.57;;;20.07;;
32329;SDS011;18807;52.434;13.238;2023-04-09T21:13:29;36.45;;;17.67;;
32329;SDS011;18807;52.434;13.238;2023-04-09T21:21:23;31.80;;;17.15;;
32329;SDS011;18807;52.434;13.238;2023-04-09T21:28:58;35.47;;;17.35;;
32329;SDS011;18807;52.434;13.238;2023-04-09T21:36:34;35.53;;;18.13;;
32329;SDS011;18807;52.434;13.238;2023-04-09T21:44:10;37.35;;;19.10;;
32329;SDS011;18807;52.434;13.238;2023-04-09T21:51:47;33.83;;;17.63;;
32329;SDS011;18807;52.434;13.238;2023-04-09T21:59:21;32.85;;;17.17;;
32329;SDS011;18807;52.434;13.238;2023-04-09T22:06:56;35.50;;;17.67;;
32329;SDS011;18807;52.434;13.238;2023-04-09T22:14:30;34.20;;;17.05;;
32329;SDS011;18807;52.434;13.238;2023-04-09T22:22:06;33.10;;;16.43;;
32329;SDS011;18807;52.434;13.238;2023-04-09T22:29:43;34.70;;;16.23;;
32329;SDS011;18807;52.434;13.238;2023-04-09T22:37:18;34.63;;;17.57;;
32329;SDS011;18807;52.434;13.238;2023-04-09T22:44:53;34.35;;;17.38;;
32329;SDS011;18807;52.434;13.238;2023-04-09T22:52:28;31.35;;;17.15;;
32329;SDS011;18807;52.434;13.238;2023-04-09T23:00:02;30.33;;;16.45;;
32329;SDS011;18807;52.434;13.238;2023-04-09T23:07:38;34.30;;;16.23;;
32329;SDS011;18807;52.434;13.238;2023-04-09T23:15:14;27.55;;;14.90;;
32329;SDS011;18807;52.434;13.238;2023-04-09T23:22:49;36.87;;;16.13;;
32329;SDS011;18807;52.434;13.238;2023-04-09T23:30:23;30.67;;;15.55;;
32329;SDS011;18807;52.434;13.238;2023-04-09T23:37:59;28.67;;;14.93;;
32329;SDS011;18807;52.434;13.238;2023-04-09T23:45:33;33.78;;;16.80;;
32329;SDS011;18807;52.434;13.238;2023-04-09T23:53:09;28.40;;;13.65;;
